Details From LFRS - Nantes Atlantique
To LFRZ - Saint Nazaire Montoir
Flight Number -
Tags Generated
Created
Modified
Stats Distance 24 nm / 45 km
Max Altitude 0 ft / 0 m
Waypoints 2
Social Downloads 3
Likes 0
Share VATSIM

Download

Looking for another format? Having issues loading an existing format? Contact us
Advertisement - Login to hide

Notes

Generated

Route

LFRS LFRZ

ID Type Via Altitude Latitude Longitude Leg Dist Tot Dist Heading (true) Name
O LFRS APT - 0 ft / 0 m 47.16048˚ -1.61493˚ - 0 nm - Nantes_Atlantique
O LFRZ APT - 0 ft / 0 m 47.30911˚ -2.16443˚ 24 nm 24 nm 292° / 292° -

Altitude Profile

Advertisement - Login to hide

LFRS

Details ICAO LFRS (NTE)
Name Nantes_Atlantique
Region France
Timezone Europe/Paris (UTC+1.0)
Stats Elevation 89 ft / 27 m (AMSL)
Location 47.156040° -1.611186°
Runways 2
Magnetic Variation 0.511° W

METAR

LFRS 120430Z AUTO 20002KT CAVOK M02/M03 Q1008 NOSIG

Decode

TAF

TAF LFRS 112300Z 1200/1306 30006KT CAVOK BECMG 1202/1204 VRB03KT BECMG 1222/1224 18010KT BECMG 1302/1304 4000 -RA BKN005

Decode

Departure Runways

ID Width Length Bearing (true) Bearing (mag) Surface Threshold Offset Overrun Length
03 148 ft / 45 m 9,526 ft / 2,903 m 27.35° 27.86° Asphalt 0 ft / 0 m 0 ft / 0 m
13 100 ft / 30 m 1,999 ft / 609 m 125.55° 126.06° Concrete 0 ft / 0 m 0 ft / 0 m
21 148 ft / 45 m 9,526 ft / 2,903 m 207.37° 207.88° Asphalt 689 ft / 210 m 0 ft / 0 m
31 100 ft / 30 m 1,999 ft / 609 m 305.56° 306.07° Concrete 0 ft / 0 m 0 ft / 0 m

LFRZ

Details ICAO LFRZ (SNR)
Name Saint Nazaire Montoir
Region France
Timezone Europe/Paris (UTC+1.0)
Stats Elevation 13 ft / 4 m (AMSL)
Location 47.312188° -2.149179°
Runways 1
Magnetic Variation 0.697° W

METAR

LFRZ 120430Z AUTO 33002KT CAVOK 00/M01 Q1008 NOSIG

Decode

TAF

TAF LFRZ 112300Z 1200/1224 30006KT CAVOK BECMG 1202/1204 VRB03KT BECMG 1222/1224 18010KT

Decode

Destination Runways

ID Width Length Bearing (true) Bearing (mag) Surface Threshold Offset Overrun Length
08 148 ft / 45 m 7,872 ft / 2,400 m 73.42° 74.12° Asphalt 500 ft / 152 m 0 ft / 0 m
26 148 ft / 45 m 7,872 ft / 2,400 m 253.44° 254.14° Asphalt 500 ft / 152 m 0 ft / 0 m

Approach Navaids

Runway Type Ident Frequency Range Bearing (true) Bearing (mag) Slope Elevation
26 Localiser MT 108.50 MHz 18 nm / 33 km 253.41° 254.11° - 12 ft / 4 m (AMSL)
26 Glidescope MT 108.50 MHz 10 nm / 19 km 253.43° 254.13° 3.00° 12 ft / 4 m (AMSL)
26 DME MT 108.50 MHz 18 nm / 33 km - - - 16 ft / 5 m (AMSL)

Popular Alternatives